Time;durP1;ratioP1;P1;durP2;ratioP2;P2;SDS_P1;SDS_P2;PMS_P1;PMS_P2;Temp;Humidity;BMP_temperature;BMP_pressure;BME280_temperature;BME280_humidity;BME280_pressure;Samples;Min_cycle;Max_cycle;Signal;HPM_P1;HPM_P2
2020/12/02 00:01:20;;;;;;;61.67;26.42;;;2.90;99.90;;;;;;5071930;28;20035;-49
2020/12/02 00:04:09;;;;;;;63.20;28.73;;;2.90;99.90;;;;;;5055538;28;20024;-50
2020/12/02 00:06:37;;;;;;;62.30;28.20;;;3.00;99.90;;;;;;5071475;28;20040;-53
2020/12/02 00:09:15;;;;;;;63.05;25.92;;;3.00;99.90;;;;;;5064731;28;20039;-51
2020/12/02 00:11:42;;;;;;;68.40;28.15;;;3.10;99.90;;;;;;5070393;28;20111;-49
2020/12/02 00:14:11;;;;;;;67.18;30.30;;;3.10;99.90;;;;;;5071477;28;20043;-51
2020/12/02 00:16:37;;;;;;;62.92;27.63;;;3.10;99.90;;;;;;5071765;28;20086;-50
2020/12/02 00:19:03;;;;;;;79.28;30.77;;;3.10;99.90;;;;;;5060890;28;20016;-49
2020/12/02 00:21:32;;;;;;;68.75;28.00;;;3.00;99.90;;;;;;5071418;28;20481;-48
2020/12/02 00:23:58;;;;;;;73.88;29.45;;;3.00;99.90;;;;;;5071814;28;20137;-50
2020/12/02 00:26:25;;;;;;;76.18;29.42;;;3.10;99.90;;;;;;5071333;28;20035;-48
2020/12/02 00:28:51;;;;;;;62.47;28.63;;;3.00;99.90;;;;;;5071805;28;20095;-51
2020/12/02 00:31:18;;;;;;;69.13;28.20;;;3.00;99.90;;;;;;5062667;28;20524;-50
2020/12/02 00:33:44;;;;;;;66.78;28.17;;;3.00;99.90;;;;;;5070905;28;20059;-52
2020/12/02 00:36:09;;;;;;;61.33;28.42;;;3.00;99.90;;;;;;5071539;28;20028;-54
2020/12/02 00:38:35;;;;;;;68.35;29.70;;;3.00;99.90;;;;;;5070977;28;20041;-50
2020/12/02 00:41:00;;;;;;;59.97;27.27;;;3.00;99.90;;;;;;5071410;28;20020;-49
2020/12/02 00:43:28;;;;;;;58.10;27.02;;;3.00;99.90;;;;;;5070946;28;20404;-49
2020/12/02 00:45:59;;;;;;;62.45;28.63;;;2.90;99.90;;;;;;5070917;28;20063;-50
2020/12/02 00:48:26;;;;;;;56.83;27.50;;;2.90;99.90;;;;;;5053423;28;20167;-49
2020/12/02 00:50:53;;;;;;;57.75;28.58;;;2.90;99.90;;;;;;5071065;28;20020;-48
2020/12/02 00:53:22;;;;;;;51.67;27.60;;;2.90;99.90;;;;;;5053296;28;20495;-49
2020/12/02 00:55:49;;;;;;;61.63;29.30;;;2.80;99.90;;;;;;5070667;28;20032;-49
2020/12/02 00:58:46;;;;;;;56.22;25.60;;;2.80;99.90;;;;;;5053000;28;20496;-51
2020/12/02 01:01:18;;;;;;;51.35;25.95;;;2.80;99.90;;;;;;5070815;28;20016;-49
2020/12/02 01:03:47;;;;;;;53.08;27.50;;;2.80;99.90;;;;;;5071003;28;20386;-50
2020/12/02 01:06:12;;;;;;;52.30;25.63;;;2.80;99.90;;;;;;5053022;28;20513;-50
2020/12/02 01:08:40;;;;;;;59.75;29.42;;;2.80;99.90;;;;;;5070859;28;20029;-53
2020/12/02 01:11:22;;;;;;;49.35;24.55;;;2.80;99.90;;;;;;5070520;28;20025;-50
2020/12/02 01:13:53;;;;;;;47.38;25.25;;;2.90;99.90;;;;;;5070979;28;20025;-47
2020/12/02 01:16:30;;;;;;;49.40;25.95;;;2.80;99.90;;;;;;5070739;28;20029;-48
2020/12/02 01:18:57;;;;;;;46.17;24.27;;;2.80;99.90;;;;;;5070765;28;20206;-48
2020/12/02 01:22:04;;;;;;;50.60;25.40;;;2.90;99.90;;;;;;5052909;28;20481;-50
2020/12/02 01:24:36;;;;;;;45.40;23.58;;;2.80;99.90;;;;;;5069453;28;20074;-47
2020/12/02 01:27:18;;;;;;;48.75;24.50;;;2.80;99.90;;;;;;5070448;28;21648;-52
2020/12/02 01:29:45;;;;;;;45.75;23.75;;;2.90;99.90;;;;;;5052420;28;20569;-53
2020/12/02 01:32:11;;;;;;;43.10;22.33;;;2.80;99.90;;;;;;5070747;28;20481;-50
2020/12/02 01:34:36;;;;;;;45.60;24.23;;;2.80;99.90;;;;;;5070688;28;20044;-52
2020/12/02 01:37:17;;;;;;;47.33;24.55;;;2.80;99.90;;;;;;5070892;28;20107;-51
2020/12/02 01:39:50;;;;;;;44.92;23.38;;;2.80;99.90;;;;;;5070384;28;20035;-50
2020/12/02 01:42:15;;;;;;;42.78;23.60;;;2.80;99.90;;;;;;5052632;28;20031;-50
2020/12/02 01:44:41;;;;;;;47.70;24.90;;;2.90;99.90;;;;;;5070743;28;20021;-50
2020/12/02 01:47:26;;;;;;;50.10;24.00;;;2.90;99.90;;;;;;5070523;28;20509;-47
2020/12/02 01:50:18;;;;;;;53.70;24.30;;;2.90;99.90;;;;;;5052338;28;20203;-47
2020/12/02 01:53:05;;;;;;;43.35;23.50;;;2.90;99.90;;;;;;5070611;28;20029;-49
2020/12/02 01:55:38;;;;;;;45.80;25.20;;;2.90;99.90;;;;;;5070484;28;20473;-51
2020/12/02 01:58:14;;;;;;;45.78;24.58;;;2.90;99.90;;;;;;5070175;28;20107;-52
2020/12/02 02:00:43;;;;;;;47.50;23.65;;;2.90;99.90;;;;;;5052229;28;20023;-48
2020/12/02 02:03:13;;;;;;;45.17;23.40;;;2.90;99.90;;;;;;5070355;28;20021;-52
2020/12/02 02:06:04;;;;;;;53.50;25.45;;;2.90;99.90;;;;;;5070495;28;20025;-50
2020/12/02 02:08:32;;;;;;;44.03;23.25;;;2.80;99.90;;;;;;5052261;28;20135;-50
2020/12/02 02:11:02;;;;;;;44.35;23.92;;;2.80;99.90;;;;;;5069904;28;20505;-49
2020/12/02 02:13:53;;;;;;;49.13;24.67;;;2.80;99.90;;;;;;5070293;28;20033;-50
2020/12/02 02:16:26;;;;;;;43.28;24.08;;;2.80;99.90;;;;;;5070290;28;20102;-50
2020/12/02 02:18:52;;;;;;;48.83;24.13;;;2.80;99.90;;;;;;5070146;28;20085;-47
2020/12/02 02:21:25;;;;;;;46.78;23.63;;;2.80;99.90;;;;;;5070263;28;20425;-47
2020/12/02 02:23:51;;;;;;;47.33;24.60;;;2.80;99.90;;;;;;5070228;28;20028;-48
2020/12/02 02:26:40;;;;;;;40.40;22.45;;;2.80;99.90;;;;;;5052213;28;20021;-48
2020/12/02 02:29:11;;;;;;;47.28;24.48;;;2.90;99.90;;;;;;5052123;28;20498;-49
2020/12/02 02:31:51;;;;;;;52.33;25.58;;;2.80;99.90;;;;;;5069998;28;20445;-46
2020/12/02 02:34:18;;;;;;;42.78;24.25;;;2.80;99.90;;;;;;5052925;28;20056;-47
2020/12/02 02:36:44;;;;;;;44.67;23.55;;;2.80;99.90;;;;;;5055876;28;20078;-48
2020/12/02 02:39:12;;;;;;;44.05;23.85;;;2.80;99.90;;;;;;5073932;28;20032;-49
2020/12/02 02:41:38;;;;;;;41.28;23.33;;;2.80;99.90;;;;;;5055876;28;20074;-49
2020/12/02 02:44:04;;;;;;;43.28;23.52;;;2.80;99.90;;;;;;5073777;28;20024;-49
2020/12/02 02:46:30;;;;;;;42.72;23.15;;;2.80;99.90;;;;;;5073862;28;20107;-48
2020/12/02 02:48:56;;;;;;;44.83;23.42;;;2.90;99.90;;;;;;5073901;28;20528;-47
2020/12/02 02:51:21;;;;;;;46.50;23.55;;;2.90;99.90;;;;;;5055574;28;20481;-48
2020/12/02 02:53:47;;;;;;;38.88;21.85;;;2.90;99.90;;;;;;5073598;28;20143;-47
2020/12/02 02:56:14;;;;;;;41.78;23.48;;;2.90;99.90;;;;;;5055454;28;20345;-47
2020/12/02 02:58:39;;;;;;;41.97;22.88;;;2.90;99.90;;;;;;5073327;28;20513;-50
2020/12/02 03:01:06;;;;;;;44.25;22.33;;;3.00;99.90;;;;;;5073556;28;20043;-54
2020/12/02 03:03:32;;;;;;;48.05;23.92;;;3.00;99.90;;;;;;5073419;28;20024;-50
2020/12/02 03:06:00;;;;;;;43.45;22.30;;;3.00;99.90;;;;;;5055295;28;20024;-49
2020/12/02 03:08:25;;;;;;;42.88;22.95;;;3.00;99.90;;;;;;5055228;28;20024;-52
2020/12/02 03:10:51;;;;;;;40.75;22.65;;;3.00;99.90;;;;;;5055050;28;20174;-47
2020/12/02 03:13:32;;;;;;;42.03;22.77;;;3.00;99.90;;;;;;5073197;28;20478;-49
2020/12/02 03:16:03;;;;;;;40.80;21.60;;;3.00;99.90;;;;;;5073099;28;20025;-49
2020/12/02 03:18:29;;;;;;;39.55;22.52;;;3.00;99.90;;;;;;5072999;28;20020;-50
2020/12/02 03:20:59;;;;;;;45.60;24.17;;;3.00;99.90;;;;;;5072939;28;20027;-50
2020/12/02 03:23:26;;;;;;;46.58;24.50;;;3.00;99.90;;;;;;5073289;28;20496;-50
2020/12/02 03:25:51;;;;;;;40.25;21.63;;;3.00;99.90;;;;;;5073243;28;20035;-50
2020/12/02 03:28:18;;;;;;;45.28;24.17;;;3.10;99.90;;;;;;5073262;28;20021;-48
2020/12/02 03:30:44;;;;;;;46.67;24.25;;;3.10;99.90;;;;;;5072909;28;20082;-47
2020/12/02 03:33:12;;;;;;;42.83;23.02;;;3.00;99.90;;;;;;5072922;28;20078;-48
2020/12/02 03:35:38;;;;;;;40.42;22.95;;;3.10;99.90;;;;;;5072877;28;20449;-48
2020/12/02 03:38:03;;;;;;;49.30;22.50;;;3.10;99.90;;;;;;5072764;28;20119;-50
2020/12/02 03:40:29;;;;;;;39.63;21.50;;;3.10;99.90;;;;;;5054659;28;20221;-53
2020/12/02 03:42:56;;;;;;;45.80;24.52;;;3.10;99.90;;;;;;5072556;28;20024;-50
2020/12/02 03:45:22;;;;;;;42.22;23.95;;;3.10;99.90;;;;;;5072697;28;20031;-51
2020/12/02 03:47:47;;;;;;;46.25;23.58;;;3.10;99.90;;;;;;5071760;28;20099;-52
2020/12/02 03:50:14;;;;;;;44.40;23.13;;;3.10;99.90;;;;;;5072221;28;20036;-49
2020/12/02 03:52:40;;;;;;;43.95;23.23;;;3.10;99.90;;;;;;5072687;28;20025;-49
2020/12/02 03:55:07;;;;;;;43.58;21.95;;;3.00;99.90;;;;;;5072939;28;20066;-48
2020/12/02 03:57:33;;;;;;;47.08;25.70;;;3.10;99.90;;;;;;5072188;28;20492;-48
2020/12/02 03:59:58;;;;;;;42.35;22.95;;;3.00;99.90;;;;;;5072018;28;20051;-48
2020/12/02 04:02:24;;;;;;;44.65;23.35;;;3.00;99.90;;;;;;5054407;28;20048;-51
2020/12/02 04:04:49;;;;;;;43.90;23.13;;;3.00;99.90;;;;;;5054240;28;20082;-51
2020/12/02 04:07:15;;;;;;;39.55;21.80;;;3.00;99.90;;;;;;5072084;28;20454;-48
2020/12/02 04:09:41;;;;;;;40.72;22.35;;;2.90;99.90;;;;;;5071858;28;20034;-50
2020/12/02 04:12:06;;;;;;;41.50;21.48;;;3.00;99.90;;;;;;5071979;28;20024;-51
2020/12/02 04:14:32;;;;;;;37.05;21.08;;;2.90;99.90;;;;;;5071901;28;20036;-49
2020/12/02 04:16:57;;;;;;;40.10;21.15;;;2.90;99.90;;;;;;5071653;28;20078;-51
2020/12/02 04:19:23;;;;;;;38.58;21.42;;;2.90;99.90;;;;;;5071551;28;20048;-51
2020/12/02 04:21:48;;;;;;;38.25;21.05;;;2.90;99.90;;;;;;5071707;28;20017;-50
2020/12/02 04:24:14;;;;;;;33.47;19.73;;;3.00;99.90;;;;;;5071846;28;20037;-51
2020/12/02 04:26:39;;;;;;;39.42;21.23;;;3.00;99.90;;;;;;5071760;28;20025;-50
2020/12/02 04:29:05;;;;;;;34.38;19.80;;;3.00;99.90;;;;;;5071771;28;20028;-50
2020/12/02 04:31:31;;;;;;;35.47;20.42;;;3.10;99.90;;;;;;5053555;28;20027;-53
2020/12/02 04:33:56;;;;;;;40.60;20.92;;;3.00;99.90;;;;;;5071706;28;20112;-51
2020/12/02 04:36:22;;;;;;;37.15;22.00;;;3.00;99.90;;;;;;5071515;28;20485;-47
2020/12/02 04:38:47;;;;;;;37.72;21.17;;;3.00;99.90;;;;;;5071322;28;20032;-48
2020/12/02 04:41:16;;;;;;;35.95;21.33;;;3.00;99.90;;;;;;5071334;28;20097;-48
2020/12/02 04:43:45;;;;;;;36.47;20.52;;;3.00;99.90;;;;;;5071457;28;20020;-50
2020/12/02 04:46:14;;;;;;;34.58;19.50;;;2.90;99.90;;;;;;5071515;28;20135;-50
2020/12/02 04:48:43;;;;;;;37.30;19.15;;;2.90;99.90;;;;;;5071463;28;20397;-48
2020/12/02 04:51:18;;;;;;;32.13;19.00;;;2.90;99.90;;;;;;5071713;28;20025;-48
2020/12/02 04:53:47;;;;;;;35.35;19.60;;;2.90;99.90;;;;;;5071389;28;20074;-47
2020/12/02 04:56:12;;;;;;;29.88;16.95;;;2.90;99.40;;;;;;5070963;28;20214;-50
2020/12/02 04:58:39;;;;;;;25.33;15.77;;;2.90;99.30;;;;;;5052665;28;20031;-50
2020/12/02 05:01:13;;;;;;;25.20;15.68;;;3.00;98.90;;;;;;5071113;28;20038;-51
2020/12/02 05:03:48;;;;;;;22.90;13.85;;;3.00;98.80;;;;;;5053623;28;20020;-48
2020/12/02 05:06:25;;;;;;;30.15;15.77;;;3.00;98.70;;;;;;5071319;28;20024;-48
2020/12/02 05:08:50;;;;;;;27.30;15.90;;;3.00;98.70;;;;;;5071233;28;20020;-48
2020/12/02 05:11:16;;;;;;;23.42;13.73;;;3.00;98.50;;;;;;5070756;28;20039;-50
2020/12/02 05:13:58;;;;;;;29.77;16.45;;;3.00;98.30;;;;;;5070872;28;20029;-48
2020/12/02 05:16:24;;;;;;;27.13;14.73;;;3.10;98.40;;;;;;5071070;28;20025;-49
2020/12/02 05:19:03;;;;;;;31.85;17.58;;;3.00;98.40;;;;;;5052748;28;20490;-51
2020/12/02 05:21:40;;;;;;;34.30;19.38;;;3.10;98.70;;;;;;5070848;28;20024;-48
2020/12/02 05:24:12;;;;;;;31.55;18.02;;;3.20;98.70;;;;;;5070760;28;20020;-49
2020/12/02 05:26:42;;;;;;;30.33;19.10;;;3.10;98.60;;;;;;5070227;28;20020;-50
2020/12/02 05:29:29;;;;;;;33.03;19.73;;;3.10;98.80;;;;;;5070792;28;20017;-48
2020/12/02 05:32:17;;;;;;;35.28;20.15;;;3.20;99.70;;;;;;5052751;28;20028;-47
2020/12/02 05:34:42;;;;;;;32.58;19.08;;;3.20;99.70;;;;;;5071139;28;20198;-50
2020/12/02 05:37:13;;;;;;;35.03;19.85;;;3.10;99.80;;;;;;5070428;28;20082;-49
2020/12/02 05:39:50;;;;;;;30.65;17.75;;;3.10;99.50;;;;;;5070615;28;20025;-49
2020/12/02 05:42:27;;;;;;;34.50;19.20;;;3.10;99.30;;;;;;5070475;28;20108;-52
2020/12/02 05:45:00;;;;;;;38.05;22.08;;;3.10;99.60;;;;;;5052593;28;20031;-48
2020/12/02 05:47:27;;;;;;;33.22;19.67;;;3.10;99.90;;;;;;5070598;28;20024;-48
2020/12/02 05:49:57;;;;;;;38.13;20.95;;;3.10;99.90;;;;;;5052612;28;20032;-52
2020/12/02 05:52:25;;;;;;;37.25;20.40;;;3.10;99.90;;;;;;5070547;28;20032;-52
2020/12/02 05:54:58;;;;;;;34.63;19.38;;;3.10;99.90;;;;;;5070361;28;20025;-48
2020/12/02 05:57:23;;;;;;;41.40;21.55;;;3.20;99.90;;;;;;5070402;28;20084;-51
2020/12/02 05:59:52;;;;;;;36.28;20.00;;;3.10;99.90;;;;;;5070551;28;20155;-53
2020/12/02 06:02:19;;;;;;;35.28;20.10;;;3.20;99.90;;;;;;5070592;28;20332;-47
2020/12/02 06:04:50;;;;;;;33.33;19.08;;;3.20;99.90;;;;;;5070359;28;20452;-52
2020/12/02 06:07:15;;;;;;;39.05;21.45;;;3.20;99.70;;;;;;5070851;28;20432;-48
2020/12/02 06:09:48;;;;;;;35.13;20.50;;;3.20;99.60;;;;;;5071441;28;20040;-47
2020/12/02 06:12:38;;;;;;;33.30;19.40;;;3.30;99.50;;;;;;5074414;28;20028;-48
2020/12/02 06:15:16;;;;;;;33.50;20.02;;;3.20;99.50;;;;;;5074563;28;20056;-49
2020/12/02 06:17:42;;;;;;;36.20;20.58;;;3.20;99.40;;;;;;5074247;28;20104;-49
2020/12/02 06:20:07;;;;;;;36.15;20.20;;;3.20;99.40;;;;;;5073878;28;20115;-48
2020/12/02 06:22:45;;;;;;;36.72;20.88;;;3.10;99.30;;;;;;5055865;28;20032;-47
2020/12/02 06:25:47;;;;;;;36.20;19.67;;;3.10;99.40;;;;;;5073999;28;20027;-47
2020/12/02 06:28:16;;;;;;;38.22;20.92;;;3.10;99.60;;;;;;5073867;28;20489;-51
2020/12/02 06:30:51;;;;;;;34.05;22.20;;;3.10;99.60;;;;;;5073494;28;20055;-48
2020/12/02 06:33:20;;;;;;;41.92;22.73;;;3.00;99.80;;;;;;5073901;28;20059;-47
2020/12/02 06:35:50;;;;;;;34.47;19.65;;;3.00;99.80;;;;;;5073693;28;20031;-50
2020/12/02 06:38:27;;;;;;;36.38;20.88;;;3.00;99.70;;;;;;5073648;28;20557;-49
2020/12/02 06:40:58;;;;;;;37.38;21.58;;;3.00;99.60;;;;;;5073996;28;20028;-49
2020/12/02 06:43:25;;;;;;;36.30;20.98;;;3.00;99.60;;;;;;5055790;28;20043;-50
2020/12/02 06:45:50;;;;;;;40.97;22.70;;;2.90;99.70;;;;;;5073985;28;20115;-50
2020/12/02 06:48:31;;;;;;;42.97;23.17;;;2.90;99.90;;;;;;5073389;28;20574;-49
2020/12/02 06:50:58;;;;;;;37.15;21.38;;;2.90;99.90;;;;;;5073141;28;20024;-50
2020/12/02 06:53:24;;;;;;;35.28;21.20;;;3.00;99.80;;;;;;5073205;28;20054;-49
2020/12/02 06:55:59;;;;;;;40.60;22.65;;;3.00;99.80;;;;;;5073579;28;20036;-50
2020/12/02 06:58:25;;;;;;;;;;;3.00;99.70;;;;;;5055940;28;20036;-50
2020/12/02 07:00:58;;;;;;;39.75;20.95;;;3.00;99.50;;;;;;5055159;28;20002;-51
2020/12/02 07:03:26;;;;;;;37.35;20.58;;;2.90;99.50;;;;;;5073558;28;20382;-47
2020/12/02 07:06:16;;;;;;;38.03;21.42;;;2.90;99.60;;;;;;5073345;28;20032;-50
2020/12/02 07:08:42;;;;;;;36.17;20.25;;;2.90;99.50;;;;;;5073356;28;20461;-50
2020/12/02 07:11:22;;;;;;;39.30;22.05;;;2.90;99.70;;;;;;5073288;28;20526;-48
2020/12/02 07:13:51;;;;;;;34.58;20.45;;;2.90;99.80;;;;;;5073643;28;20099;-52
2020/12/02 07:16:32;;;;;;;41.88;21.80;;;3.00;99.70;;;;;;5074081;28;20025;-48
2020/12/02 07:19:00;;;;;;;37.92;20.40;;;3.10;99.70;;;;;;5073019;28;20025;-50
2020/12/02 07:21:30;;;;;;;39.80;21.92;;;3.00;99.50;;;;;;5071567;28;20037;-47
2020/12/02 07:23:58;;;;;;;40.15;19.98;;;2.90;99.50;;;;;;5072954;28;20499;-47
2020/12/02 07:26:24;;;;;;;39.88;20.38;;;2.90;99.60;;;;;;5073165;28;20024;-47
2020/12/02 07:29:01;;;;;;;41.92;22.02;;;2.90;99.60;;;;;;5055317;28;20078;-50
2020/12/02 07:31:29;;;;;;;39.85;21.40;;;2.90;99.60;;;;;;5072662;28;20387;-48
2020/12/02 07:34:10;;;;;;;42.60;22.85;;;2.90;99.60;;;;;;5073004;28;20024;-47
2020/12/02 07:36:36;;;;;;;39.00;21.55;;;3.00;99.80;;;;;;5072789;28;20020;-49
2020/12/02 07:39:15;;;;;;;43.67;21.15;;;3.00;99.60;;;;;;5074330;28;20112;-48
2020/12/02 07:42:02;;;;;;;38.35;21.38;;;3.00;99.60;;;;;;5072778;28;20024;-48
2020/12/02 07:44:33;;;;;;;40.90;22.33;;;3.00;99.70;;;;;;5072843;28;20020;-47
2020/12/02 07:47:02;;;;;;;43.05;21.63;;;3.00;99.80;;;;;;5072792;28;20060;-47
2020/12/02 07:49:30;;;;;;;38.97;21.20;;;2.90;99.70;;;;;;5072444;28;20100;-47
2020/12/02 07:52:08;;;;;;;37.08;20.67;;;2.90;99.70;;;;;;5054692;28;20025;-48
2020/12/02 07:54:34;;;;;;;36.58;21.20;;;2.90;99.80;;;;;;5072330;28;20037;-48
2020/12/02 07:57:01;;;;;;;44.33;22.00;;;3.00;99.70;;;;;;5072296;28;20485;-50
2020/12/02 07:59:30;;;;;;;35.42;19.45;;;3.00;99.60;;;;;;5072180;28;20035;-47
2020/12/02 08:02:07;;;;;;;38.60;21.60;;;2.90;99.90;;;;;;5072397;28;20029;-47
2020/12/02 08:04:37;;;;;;;41.05;21.10;;;3.00;99.80;;;;;;5072271;28;20024;-48
2020/12/02 08:07:10;;;;;;;43.10;22.02;;;3.00;99.70;;;;;;5072088;28;20473;-48
2020/12/02 08:09:39;;;;;;;45.97;22.60;;;3.00;99.70;;;;;;5072060;28;20448;-47
2020/12/02 08:12:16;;;;;;;42.83;22.15;;;3.00;99.70;;;;;;5054186;28;20025;-49
2020/12/02 08:14:46;;;;;;;35.63;20.02;;;3.00;99.80;;;;;;5072168;28;20127;-48
2020/12/02 08:17:18;;;;;;;33.45;19.02;;;3.10;99.80;;;;;;5071628;28;20054;-48
2020/12/02 08:19:47;;;;;;;40.33;21.52;;;3.10;99.50;;;;;;5071392;28;20419;-48
2020/12/02 08:22:22;;;;;;;37.58;21.63;;;3.10;99.40;;;;;;5071689;28;20029;-49
2020/12/02 08:25:01;;;;;;;35.88;18.60;;;3.10;99.60;;;;;;5071796;28;20020;-47
2020/12/02 08:27:28;;;;;;;31.98;17.98;;;3.10;99.60;;;;;;5071540;28;20036;-49
2020/12/02 08:29:54;;;;;;;33.25;20.10;;;3.10;99.60;;;;;;5071317;28;20017;-48
2020/12/02 08:32:32;;;;;;;39.45;19.88;;;3.10;99.50;;;;;;5071361;28;20056;-48
2020/12/02 08:34:57;;;;;;;36.05;19.30;;;3.20;99.20;;;;;;5071724;28;20028;-49
2020/12/02 08:37:35;;;;;;;32.53;18.08;;;3.30;99.10;;;;;;5071225;28;20115;-47
2020/12/02 08:40:22;;;;;;;31.80;17.73;;;3.30;99.10;;;;;;5071254;28;20399;-51
2020/12/02 08:42:47;;;;;;;30.45;17.10;;;3.30;98.80;;;;;;5071561;28;20478;-47
2020/12/02 08:45:16;;;;;;;32.10;16.77;;;3.30;98.80;;;;;;5071303;28;20044;-49
2020/12/02 08:47:42;;;;;;;31.88;18.85;;;3.20;98.90;;;;;;5071299;28;20020;-49
2020/12/02 08:50:22;;;;;;;31.02;17.17;;;3.20;99.00;;;;;;5070984;28;20032;-59
2020/12/02 08:52:54;;;;;;;30.13;17.63;;;3.20;99.00;;;;;;5070158;28;20060;-48
2020/12/02 08:55:20;;;;;;;30.45;18.98;;;3.30;98.80;;;;;;5071186;28;20021;-49
2020/12/02 08:57:45;;;;;;;34.85;18.85;;;3.30;98.70;;;;;;5070420;28;20477;-49
2020/12/02 09:00:14;;;;;;;35.38;19.30;;;3.30;98.80;;;;;;5070755;28;20036;-52
2020/12/02 09:02:40;;;;;;;35.67;18.95;;;3.20;99.30;;;;;;5071225;28;20182;-47
2020/12/02 09:05:06;;;;;;;33.60;18.73;;;3.20;99.20;;;;;;5071001;28;20673;-49
2020/12/02 09:07:31;;;;;;;32.38;18.80;;;3.20;99.10;;;;;;5070897;28;20381;-51
2020/12/02 09:09:57;;;;;;;32.90;18.92;;;3.20;99.20;;;;;;5071289;28;20104;-48
2020/12/02 09:12:23;;;;;;;35.65;20.35;;;3.30;99.40;;;;;;5070951;28;20173;-50
2020/12/02 09:14:49;;;;;;;31.95;19.00;;;3.30;99.40;;;;;;5070996;28;20032;-52
2020/12/02 09:17:14;;;;;;;38.55;20.27;;;3.40;99.10;;;;;;5071054;28;20405;-50
2020/12/02 09:19:40;;;;;;;37.80;20.23;;;3.50;98.80;;;;;;5070022;28;20528;-49
2020/12/02 09:22:05;;;;;;;33.25;20.17;;;3.50;98.80;;;;;;5070203;28;20035;-51
2020/12/02 09:24:31;;;;;;;34.58;19.35;;;3.50;98.70;;;;;;5070724;28;20032;-51
2020/12/02 09:26:56;;;;;;;32.47;19.30;;;3.50;98.80;;;;;;5070788;28;20374;-51
2020/12/02 09:29:22;;;;;;;33.45;20.25;;;3.60;98.70;;;;;;5069878;28;20032;-54
2020/12/02 09:31:47;;;;;;;30.23;17.38;;;3.60;98.60;;;;;;5070608;28;20051;-46
2020/12/02 09:34:13;;;;;;;34.10;19.25;;;3.70;98.40;;;;;;5070159;28;20035;-48
2020/12/02 09:36:38;;;;;;;36.78;19.60;;;3.80;98.10;;;;;;5070322;28;20032;-48
2020/12/02 09:39:06;;;;;;;34.42;19.63;;;3.70;98.50;;;;;;5070161;28;20048;-52
2020/12/02 09:41:40;;;;;;;29.65;18.63;;;3.70;98.60;;;;;;5069946;28;20028;-50
2020/12/02 09:44:27;;;;;;;32.20;19.63;;;3.70;98.40;;;;;;5069823;28;20450;-52
2020/12/02 09:46:58;;;;;;;33.65;19.70;;;3.70;98.40;;;;;;5069942;28;20103;-48
2020/12/02 09:49:23;;;;;;;34.60;20.15;;;3.60;98.40;;;;;;5070328;28;20024;-48
2020/12/02 09:51:53;;;;;;;35.65;20.08;;;3.50;98.70;;;;;;5069988;28;20017;-49
2020/12/02 09:54:19;;;;;;;35.15;19.05;;;3.50;99.20;;;;;;5064790;28;20394;-49
2020/12/02 09:56:45;;;;;;;36.15;20.73;;;3.50;98.80;;;;;;5069894;28;20031;-48
2020/12/02 09:59:12;;;;;;;38.53;19.48;;;3.50;99.10;;;;;;5069891;28;20036;-52
2020/12/02 10:02:00;;;;;;;37.05;20.75;;;3.40;99.00;;;;;;5069135;28;20024;-50
2020/12/02 10:04:44;;;;;;;38.33;21.55;;;3.50;99.20;;;;;;5070202;28;20031;-48
2020/12/02 10:07:26;;;;;;;38.85;20.55;;;3.50;99.20;;;;;;5070316;28;20482;-50
2020/12/02 10:10:04;;;;;;;39.13;20.45;;;3.50;99.30;;;;;;5069637;28;20505;-50
2020/12/02 10:12:52;;;;;;;38.95;19.95;;;3.40;99.40;;;;;;5068829;28;20067;-50
2020/12/02 10:15:29;;;;;;;36.90;19.88;;;3.50;99.10;;;;;;5057527;28;20118;-49
2020/12/02 10:18:20;;;;;;;39.15;21.40;;;3.50;99.40;;;;;;5069971;28;20397;-53
2020/12/02 10:20:49;;;;;;;36.28;19.23;;;3.50;99.30;;;;;;5069623;28;20021;-54
2020/12/02 10:23:44;;;;;;;41.80;21.90;;;3.50;99.40;;;;;;5070142;28;20028;-51
2020/12/02 10:26:34;;;;;;;33.95;18.85;;;3.50;99.20;;;;;;5050391;28;20110;-53
2020/12/02 10:29:08;;;;;;;35.17;21.15;;;3.50;99.20;;;;;;5052338;28;20021;-50
2020/12/02 10:31:56;;;;;;;33.75;19.75;;;3.50;99.20;;;;;;5069867;28;20043;-51
2020/12/02 10:34:35;;;;;;;39.42;22.02;;;3.50;98.80;;;;;;5069941;28;20303;-47
2020/12/02 10:37:24;;;;;;;37.05;20.92;;;3.50;98.60;;;;;;5069987;28;20043;-48
2020/12/02 10:39:50;;;;;;;40.17;18.23;;;3.50;98.40;;;;;;5049637;28;20094;-50
2020/12/02 10:42:27;;;;;;;32.45;18.00;;;3.50;98.20;;;;;;5049751;28;20021;-47
2020/12/02 10:44:57;;;;;;;36.30;19.13;;;3.60;97.80;;;;;;5031631;28;20025;-49
2020/12/02 10:47:53;;;;;;;34.70;20.10;;;3.50;97.70;;;;;;5049521;28;20025;-48
2020/12/02 10:50:22;;;;;;;30.30;16.83;;;3.50;97.70;;;;;;5049739;28;20031;-53
2020/12/02 10:52:51;;;;;;;41.78;19.40;;;3.50;98.20;;;;;;5052452;28;20040;-50
2020/12/02 10:55:30;;;;;;;37.15;18.23;;;3.50;98.00;;;;;;5069780;28;20123;-50
2020/12/02 10:58:18;;;;;;;33.17;18.98;;;3.40;98.00;;;;;;5072588;28;20392;-50
2020/12/02 11:00:43;;;;;;;32.80;21.48;;;3.40;98.30;;;;;;5072895;28;20354;-48
2020/12/02 11:03:23;;;;;;;32.08;18.92;;;3.40;98.50;;;;;;5073103;28;20017;-48
2020/12/02 11:06:14;;;;;;;30.40;17.20;;;3.40;98.30;;;;;;5073615;28;20427;-49
2020/12/02 11:09:11;;;;;;;38.85;20.25;;;3.40;97.80;;;;;;5061759;28;20044;-53
2020/12/02 11:11:44;;;;;;;30.08;16.83;;;3.40;98.30;;;;;;5035253;28;20033;-50
2020/12/02 11:14:22;;;;;;;33.15;18.83;;;3.30;97.90;;;;;;5072832;28;20481;-50
2020/12/02 11:17:09;;;;;;;31.90;18.55;;;3.30;98.30;;;;;;5072766;28;20021;-50
2020/12/02 11:19:35;;;;;;;34.67;20.23;;;3.30;98.10;;;;;;5072453;28;20097;-50
2020/12/02 11:22:29;;;;;;;35.13;20.45;;;3.40;98.00;;;;;;5069691;28;20267;-54
2020/12/02 11:25:04;;;;;;;29.48;16.65;;;3.40;98.10;;;;;;5080160;28;20024;-57
2020/12/02 11:27:30;;;;;;;31.40;18.17;;;3.50;97.90;;;;;;5083241;28;20327;-60
2020/12/02 11:29:56;;;;;;;34.33;19.50;;;3.40;97.50;;;;;;5073634;28;20034;-60
2020/12/02 11:32:48;;;;;;;34.22;20.33;;;3.30;98.00;;;;;;5065999;28;20427;-58
2020/12/02 11:35:39;;;;;;;33.45;18.92;;;3.40;98.00;;;;;;5078222;28;20559;-58
2020/12/02 11:38:25;;;;;;;30.17;16.95;;;3.40;97.50;;;;;;5081768;28;20040;-58
2020/12/02 11:41:07;;;;;;;27.23;16.63;;;3.40;97.20;;;;;;5074926;28;20509;-62
2020/12/02 11:43:39;;;;;;;30.13;17.48;;;3.30;97.40;;;;;;5071350;28;20028;-59
2020/12/02 11:46:07;;;;;;;32.47;18.23;;;3.40;97.50;;;;;;5071611;28;20032;-58
2020/12/02 11:48:40;;;;;;;41.08;19.45;;;3.20;97.90;;;;;;5078080;28;20016;-58
2020/12/02 11:51:22;;;;;;;39.83;21.55;;;3.20;98.10;;;;;;5082028;28;20028;-59
2020/12/02 11:53:59;;;;;;;35.45;20.33;;;3.20;98.40;;;;;;5071907;28;20024;-55
2020/12/02 11:56:37;;;;;;;35.60;20.17;;;3.30;98.40;;;;;;5070205;28;20020;-53
2020/12/02 11:59:07;;;;;;;36.38;21.25;;;3.40;98.30;;;;;;5072048;28;20104;-51
2020/12/02 12:01:57;;;;;;;35.63;18.88;;;3.40;98.10;;;;;;5071750;28;20027;-54
2020/12/02 12:04:32;;;;;;;33.28;19.65;;;3.40;98.00;;;;;;5050696;28;20040;-51
2020/12/02 12:07:32;;;;;;;35.20;20.83;;;3.30;98.20;;;;;;5071392;28;20371;-54
2020/12/02 12:10:12;;;;;;;35.25;21.33;;;3.40;98.40;;;;;;5053863;28;20021;-50
2020/12/02 12:12:52;;;;;;;35.63;20.58;;;3.40;97.90;;;;;;5061089;28;20035;-56
2020/12/02 12:15:35;;;;;;;31.10;19.05;;;3.40;97.80;;;;;;5071014;28;20028;-53
2020/12/02 12:18:23;;;;;;;32.63;18.33;;;3.40;97.60;;;;;;5054055;28;20055;-50
2020/12/02 12:20:54;;;;;;;30.63;17.42;;;3.30;97.50;;;;;;5071074;28;20032;-54
2020/12/02 12:23:33;;;;;;;33.33;18.52;;;3.30;97.50;;;;;;5071769;28;20504;-51
2020/12/02 12:25:58;;;;;;;28.15;17.02;;;3.20;97.70;;;;;;5052623;28;20439;-53
2020/12/02 12:28:28;;;;;;;31.48;18.73;;;3.20;97.40;;;;;;5053360;28;20024;-52
2020/12/02 12:31:03;;;;;;;31.67;19.77;;;3.20;97.40;;;;;;5052636;28;20440;-51
2020/12/02 12:33:37;;;;;;;33.03;19.80;;;3.30;97.60;;;;;;5071337;28;20389;-52
2020/12/02 12:36:13;;;;;;;33.03;20.08;;;3.20;97.60;;;;;;5071834;28;20520;-50
2020/12/02 12:38:52;;;;;;;31.58;18.17;;;3.30;97.80;;;;;;5071091;28;20103;-52
2020/12/02 12:41:43;;;;;;;32.63;19.23;;;3.30;97.50;;;;;;5071075;28;20443;-53
2020/12/02 12:44:27;;;;;;;34.13;19.55;;;3.30;97.50;;;;;;5071338;28;20039;-50
2020/12/02 12:47:05;;;;;;;27.85;18.17;;;3.30;97.60;;;;;;5071200;28;20503;-53
2020/12/02 12:49:31;;;;;;;32.45;18.02;;;3.30;97.20;;;;;;5071167;28;20029;-52
2020/12/02 12:51:59;;;;;;;32.40;17.58;;;3.30;97.20;;;;;;5071348;28;20357;-49
2020/12/02 12:54:25;;;;;;;29.48;18.38;;;3.30;97.40;;;;;;5071073;28;20020;-53
2020/12/02 12:56:53;;;;;;;36.13;20.95;;;3.30;97.40;;;;;;5071243;28;20121;-53
2020/12/02 12:59:20;;;;;;;31.40;19.30;;;3.40;97.40;;;;;;5070821;28;20021;-50
2020/12/02 13:01:51;;;;;;;30.50;17.42;;;3.50;97.10;;;;;;5071306;28;20024;-51
2020/12/02 13:04:20;;;;;;;29.20;16.45;;;3.40;97.30;;;;;;5071332;28;20032;-51